Time;durP1;ratioP1;P1;durP2;ratioP2;P2;SDS_P1;SDS_P2;PMS_P1;PMS_P2;Temp;Humidity;BMP_temperature;BMP_pressure;BME280_temperature;BME280_humidity;BME280_pressure;Samples;Min_cycle;Max_cycle;Signal;HPM_P1;HPM_P2
2024/02/01 00:01:14;;;;;;;26.05;10.25;;;7.60;1.00;;;;;;5014304;28;20065;-65
2024/02/01 00:03:41;;;;;;;15.30;10.05;;;7.50;1.00;;;;;;5014492;28;20054;-66
2024/02/01 00:06:06;;;;;;;17.50;10.63;;;7.50;1.00;;;;;;5014418;28;20424;-65
2024/02/01 00:08:32;;;;;;;17.75;10.50;;;7.50;1.00;;;;;;5013821;28;20022;-66
2024/02/01 00:10:58;;;;;;;21.00;11.10;;;7.50;1.00;;;;;;5014119;28;20037;-66
2024/02/01 00:13:24;;;;;;;20.25;11.13;;;7.50;11.40;;;;;;5014040;28;20022;-66
2024/02/01 00:15:49;;;;;;;20.45;12.05;;;7.40;23.60;;;;;;5013731;28;20084;-67
2024/02/01 00:18:15;;;;;;;22.42;11.85;;;7.30;40.70;;;;;;5013657;28;20026;-66
2024/02/01 00:20:40;;;;;;;21.98;12.05;;;7.30;51.50;;;;;;5014094;28;20034;-66
2024/02/01 00:23:06;;;;;;;19.40;12.00;;;7.30;56.00;;;;;;5014116;28;20033;-66
2024/02/01 00:25:32;;;;;;;19.30;12.38;;;7.30;61.40;;;;;;5013897;28;20069;-65
2024/02/01 00:27:57;;;;;;;27.95;13.55;;;7.20;65.30;;;;;;5013919;28;20373;-65
2024/02/01 00:30:24;;;;;;;21.40;12.98;;;7.20;71.20;;;;;;5013818;28;20085;-66
2024/02/01 00:32:49;;;;;;;22.40;13.48;;;7.30;73.80;;;;;;5013660;28;20392;-65
2024/02/01 00:35:15;;;;;;;22.92;13.15;;;7.30;82.80;;;;;;5013596;28;20026;-65
2024/02/01 00:37:40;;;;;;;27.35;14.77;;;7.30;85.80;;;;;;5013614;28;20084;-66
2024/02/01 00:40:06;;;;;;;25.30;14.38;;;7.20;96.40;;;;;;5013652;28;20072;-65
2024/02/01 00:42:32;;;;;;;26.42;15.15;;;7.20;99.90;;;;;;5013448;28;20053;-65
2024/02/01 00:44:57;;;;;;;28.08;15.68;;;7.20;99.90;;;;;;5013180;28;20092;-65
2024/02/01 00:47:23;;;;;;;27.67;16.40;;;7.20;99.90;;;;;;5013412;28;20068;-65
2024/02/01 00:49:49;;;;;;;27.25;15.82;;;7.20;99.90;;;;;;5013181;28;20391;-65
2024/02/01 00:52:14;;;;;;;25.35;15.93;;;7.10;99.90;;;;;;5013690;28;20032;-65
2024/02/01 00:54:40;;;;;;;26.92;17.00;;;7.10;99.90;;;;;;5013552;28;20487;-65
2024/02/01 00:57:05;;;;;;;29.25;17.00;;;7.00;99.90;;;;;;5013676;28;20029;-65
2024/02/01 00:59:31;;;;;;;31.77;17.42;;;6.90;99.90;;;;;;5013066;28;20025;-65
2024/02/01 01:01:57;;;;;;;35.75;19.63;;;6.90;99.90;;;;;;5013253;28;20109;-66
2024/02/01 01:04:22;;;;;;;38.67;19.65;;;6.80;99.90;;;;;;5012737;28;20503;-64
2024/02/01 01:06:48;;;;;;;31.65;18.23;;;6.80;99.90;;;;;;5013305;28;20029;-66
2024/02/01 01:09:13;;;;;;;39.30;19.85;;;6.80;99.90;;;;;;5013441;28;20045;-65
2024/02/01 01:11:39;;;;;;;39.53;20.80;;;6.80;99.90;;;;;;5013338;28;20041;-65
2024/02/01 01:14:05;;;;;;;36.15;19.45;;;6.80;99.90;;;;;;5013187;28;20034;-65
2024/02/01 01:16:30;;;;;;;35.20;20.35;;;6.70;99.90;;;;;;5013338;28;20057;-65
2024/02/01 01:18:56;;;;;;;39.03;20.88;;;6.70;99.90;;;;;;5013306;28;20109;-65
2024/02/01 01:21:22;;;;;;;38.38;21.85;;;6.80;99.90;;;;;;5013274;28;20022;-65
2024/02/01 01:23:47;;;;;;;39.60;20.20;;;6.70;99.90;;;;;;5013211;28;20423;-65
2024/02/01 01:26:13;;;;;;;38.13;21.58;;;6.70;99.90;;;;;;5013280;28;20021;-65
2024/02/01 01:28:38;;;;;;;41.67;22.95;;;6.70;99.90;;;;;;5013262;28;20037;-65
2024/02/01 01:31:04;;;;;;;46.58;22.45;;;6.70;99.90;;;;;;5013143;28;20034;-65
2024/02/01 01:33:29;;;;;;;38.05;22.60;;;6.70;99.90;;;;;;5012886;28;20499;-65
2024/02/01 01:35:55;;;;;;;45.17;23.02;;;6.80;99.90;;;;;;5012951;28;20033;-65
2024/02/01 01:38:21;;;;;;;38.17;21.63;;;6.80;99.90;;;;;;5013202;28;20476;-65
2024/02/01 01:40:48;;;;;;;42.20;21.48;;;6.80;99.90;;;;;;5013156;28;20022;-65
2024/02/01 01:43:13;;;;;;;38.28;21.55;;;6.80;99.90;;;;;;5012813;28;20022;-65
2024/02/01 01:45:39;;;;;;;45.80;23.40;;;6.80;99.90;;;;;;5013148;28;20037;-65
2024/02/01 01:48:05;;;;;;;44.60;23.95;;;6.80;99.90;;;;;;5012983;28;20595;-65
2024/02/01 01:50:30;;;;;;;48.53;24.02;;;6.80;99.90;;;;;;5013028;28;20033;-65
2024/02/01 01:52:57;;;;;;;40.88;23.42;;;6.80;99.90;;;;;;5012963;28;20040;-65
2024/02/01 01:55:25;;;;;;;40.55;22.17;;;6.80;99.90;;;;;;5012649;28;20510;-65
2024/02/01 01:57:51;;;;;;;43.55;24.02;;;6.80;99.90;;;;;;5012966;28;20026;-66
2024/02/01 02:00:18;;;;;;;41.72;24.80;;;6.90;99.90;;;;;;5013047;28;20103;-65
2024/02/01 02:02:44;;;;;;;39.65;23.50;;;6.80;99.90;;;;;;5012820;28;20026;-65
2024/02/01 02:05:10;;;;;;;41.30;24.63;;;6.80;99.90;;;;;;5013027;28;20099;-65
2024/02/01 02:07:38;;;;;;;45.22;25.27;;;6.80;99.90;;;;;;5012723;28;20033;-64
2024/02/01 02:10:05;;;;;;;45.60;24.42;;;6.90;99.90;;;;;;5012478;28;20026;-66
2024/02/01 02:12:30;;;;;;;44.33;25.80;;;6.90;99.90;;;;;;5012837;28;20026;-65
2024/02/01 02:14:58;;;;;;;46.92;25.65;;;6.90;99.90;;;;;;5012653;28;20033;-65
2024/02/01 02:17:27;;;;;;;49.33;26.77;;;6.90;99.90;;;;;;5015444;28;20030;-65
2024/02/01 02:19:53;;;;;;;49.60;26.13;;;6.90;99.90;;;;;;5016187;28;20018;-65
2024/02/01 02:22:20;;;;;;;54.15;28.05;;;7.00;99.90;;;;;;5016617;28;20026;-65
2024/02/01 02:24:46;;;;;;;46.53;27.27;;;7.00;99.90;;;;;;5015775;28;20030;-65
2024/02/01 02:27:11;;;;;;;48.63;27.23;;;7.00;99.90;;;;;;5016049;28;20053;-65
2024/02/01 02:29:37;;;;;;;48.72;27.75;;;7.00;99.90;;;;;;5016224;28;20105;-65
2024/02/01 02:32:03;;;;;;;49.53;27.45;;;7.10;99.90;;;;;;5015937;28;20041;-65
2024/02/01 02:34:28;;;;;;;46.05;26.48;;;7.10;99.90;;;;;;5015816;28;20433;-65
2024/02/01 02:36:54;;;;;;;49.10;28.45;;;7.10;99.90;;;;;;5015939;28;20029;-65
2024/02/01 02:39:19;;;;;;;51.47;27.02;;;7.10;99.90;;;;;;5015897;28;20037;-66
2024/02/01 02:41:45;;;;;;;47.63;27.23;;;7.20;99.90;;;;;;5015936;28;20432;-65
2024/02/01 02:44:11;;;;;;;45.35;26.35;;;7.10;99.90;;;;;;5015361;28;20081;-65
2024/02/01 02:46:38;;;;;;;57.35;28.20;;;7.20;99.90;;;;;;5015788;28;20041;-65
2024/02/01 02:49:03;;;;;;;50.88;27.85;;;7.20;99.90;;;;;;5015649;28;20034;-66
2024/02/01 02:51:29;;;;;;;57.30;29.30;;;7.20;99.90;;;;;;5015584;28;20140;-65
2024/02/01 02:53:55;;;;;;;53.80;29.55;;;7.20;99.90;;;;;;5015546;28;20038;-64
2024/02/01 02:56:22;;;;;;;53.70;31.42;;;7.20;99.90;;;;;;5015507;28;20034;-65
2024/02/01 02:58:49;;;;;;;52.20;29.48;;;7.20;99.90;;;;;;5015066;28;20032;-65
2024/02/01 03:01:15;;;;;;;58.20;30.55;;;7.20;99.90;;;;;;5015384;28;20037;-65
2024/02/01 03:03:40;;;;;;;57.20;31.90;;;7.30;99.90;;;;;;5015542;28;20026;-64
2024/02/01 03:06:08;;;;;;;67.22;32.15;;;7.30;99.90;;;;;;5015185;28;20033;-65
2024/02/01 03:08:34;;;;;;;61.78;32.85;;;7.30;99.90;;;;;;5014991;28;20036;-65
2024/02/01 03:11:01;;;;;;;59.15;33.00;;;7.30;99.90;;;;;;5015364;28;20030;-64
2024/02/01 03:13:26;;;;;;;63.55;34.95;;;7.30;99.90;;;;;;5015215;28;20106;-65
2024/02/01 03:15:52;;;;;;;64.65;34.05;;;7.30;99.90;;;;;;5015046;28;20109;-65
2024/02/01 03:18:17;;;;;;;65.57;34.28;;;7.30;99.90;;;;;;5015138;28;20033;-65
2024/02/01 03:20:44;;;;;;;66.45;34.95;;;7.40;99.90;;;;;;5014764;28;20021;-65
2024/02/01 03:23:10;;;;;;;67.47;35.25;;;7.40;99.90;;;;;;5014699;28;20116;-66
2024/02/01 03:25:39;;;;;;;74.13;36.28;;;7.40;99.90;;;;;;5015065;28;20026;-66
2024/02/01 03:28:05;;;;;;;74.47;36.95;;;7.50;99.90;;;;;;5014725;28;20040;-65
2024/02/01 03:30:32;;;;;;;72.57;37.88;;;7.50;99.90;;;;;;5014881;28;20030;-65
2024/02/01 03:32:58;;;;;;;75.85;39.30;;;7.50;99.90;;;;;;5014990;28;20042;-65
2024/02/01 03:35:24;;;;;;;80.22;42.08;;;7.60;99.90;;;;;;5014432;28;20033;-65
2024/02/01 03:37:50;;;;;;;76.72;39.90;;;7.60;99.90;;;;;;5014626;28;20022;-65
2024/02/01 03:40:18;;;;;;;78.05;41.35;;;7.60;99.90;;;;;;5014605;28;20029;-65
2024/02/01 03:42:45;;;;;;;79.72;40.63;;;7.70;99.90;;;;;;5014519;28;20488;-66
2024/02/01 03:45:11;;;;;;;76.05;39.90;;;7.70;99.90;;;;;;5014084;28;20108;-65
2024/02/01 03:47:37;;;;;;;81.65;41.70;;;7.60;99.90;;;;;;5013921;28;20038;-65
2024/02/01 03:50:08;;;;;;;82.43;41.88;;;7.70;99.90;;;;;;5014406;28;20026;-65
2024/02/01 03:52:37;;;;;;;84.60;43.30;;;7.70;99.90;;;;;;5014427;28;20036;-65
2024/02/01 03:55:04;;;;;;;82.82;42.72;;;7.70;99.90;;;;;;5013972;28;20052;-65
2024/02/01 03:57:29;;;;;;;88.95;44.53;;;7.70;99.90;;;;;;5014564;28;20049;-65
2024/02/01 03:59:55;;;;;;;88.13;44.13;;;7.70;99.90;;;;;;5014389;28;20456;-65
2024/02/01 04:02:22;;;;;;;89.78;46.08;;;7.70;99.90;;;;;;5014352;28;20022;-65
2024/02/01 04:04:47;;;;;;;86.43;44.70;;;7.70;99.90;;;;;;5014551;28;20076;-65
2024/02/01 04:07:16;;;;;;;87.10;44.30;;;7.80;99.90;;;;;;5013850;28;20034;-65
2024/02/01 04:09:44;;;;;;;80.93;43.05;;;7.80;99.90;;;;;;5014258;28;20081;-66
2024/02/01 04:12:09;;;;;;;81.30;42.03;;;7.80;99.90;;;;;;5014017;28;20109;-65
2024/02/01 04:14:35;;;;;;;79.53;40.38;;;7.80;99.90;;;;;;5014049;28;20129;-65
2024/02/01 04:17:00;;;;;;;87.55;42.15;;;7.80;99.90;;;;;;5013654;28;20018;-65
2024/02/01 04:19:26;;;;;;;84.57;41.67;;;7.80;99.90;;;;;;5014113;28;20034;-65
2024/02/01 04:21:51;;;;;;;85.45;40.90;;;7.80;99.90;;;;;;5014069;28;20030;-65
2024/02/01 04:24:17;;;;;;;79.78;41.97;;;7.80;99.90;;;;;;5013911;28;20049;-65
2024/02/01 04:26:42;;;;;;;81.72;41.33;;;7.90;99.90;;;;;;5014002;28;20052;-65
2024/02/01 04:29:09;;;;;;;75.82;40.38;;;7.90;99.90;;;;;;5014237;28;20037;-65
2024/02/01 04:31:35;;;;;;;75.82;41.15;;;7.90;99.90;;;;;;5013898;28;20037;-65
2024/02/01 04:34:01;;;;;;;71.30;37.58;;;7.90;99.90;;;;;;5013789;28;20435;-65
2024/02/01 04:36:27;;;;;;;71.78;38.88;;;7.90;99.90;;;;;;5013751;28;20496;-65
2024/02/01 04:38:54;;;;;;;72.03;38.65;;;8.00;99.90;;;;;;5013215;28;20018;-65
2024/02/01 04:41:19;;;;;;;66.82;37.13;;;8.00;99.90;;;;;;5013818;28;20029;-65
2024/02/01 04:43:45;;;;;;;71.30;38.08;;;8.00;99.90;;;;;;5013499;28;20385;-65
2024/02/01 04:46:11;;;;;;;74.15;39.47;;;8.00;99.90;;;;;;5013689;28;20034;-65
2024/02/01 04:48:36;;;;;;;67.50;36.45;;;8.00;99.90;;;;;;5013663;28;20428;-65
2024/02/01 04:51:02;;;;;;;68.00;38.08;;;8.00;99.90;;;;;;5013697;28;20030;-65
2024/02/01 04:53:28;;;;;;;68.20;37.15;;;8.00;99.90;;;;;;5013509;28;20034;-65
2024/02/01 04:55:53;;;;;;;67.95;36.40;;;8.00;99.90;;;;;;5013357;28;20029;-65
2024/02/01 04:58:20;;;;;;;66.63;36.78;;;8.00;99.90;;;;;;5013523;28;20116;-65
2024/02/01 05:00:46;;;;;;;68.55;37.50;;;8.00;99.90;;;;;;5013592;28;20499;-66
2024/02/01 05:03:15;;;;;;;58.38;33.63;;;8.00;99.90;;;;;;5013416;28;20365;-65
2024/02/01 05:05:45;;;;;;;58.42;33.42;;;8.00;99.90;;;;;;5013519;28;20188;-65
2024/02/01 05:08:12;;;;;;;60.25;34.22;;;8.00;99.90;;;;;;5013398;28;20026;-65
2024/02/01 05:10:39;;;;;;;60.42;33.75;;;8.10;99.90;;;;;;5012956;28;20125;-65
2024/02/01 05:13:05;;;;;;;58.45;32.20;;;8.10;99.90;;;;;;5013508;28;20388;-65
2024/02/01 05:15:30;;;;;;;53.85;30.25;;;8.10;99.90;;;;;;5013381;28;20026;-65
2024/02/01 05:17:56;;;;;;;51.50;29.58;;;8.10;99.90;;;;;;5013443;28;20089;-65
2024/02/01 05:20:21;;;;;;;50.78;28.85;;;8.10;99.90;;;;;;5013290;28;20022;-65
2024/02/01 05:22:47;;;;;;;50.78;27.92;;;8.10;99.90;;;;;;5013277;28;20057;-65
2024/02/01 05:25:16;;;;;;;49.75;28.15;;;8.10;99.90;;;;;;5012824;28;20030;-65
2024/02/01 05:27:44;;;;;;;49.08;27.00;;;8.10;99.90;;;;;;5013257;28;20542;-65
2024/02/01 05:30:11;;;;;;;42.83;24.77;;;8.00;99.90;;;;;;5013136;28;20037;-65
2024/02/01 05:32:48;;;;;;;43.78;23.45;;;8.00;99.90;;;;;;5013072;28;20395;-65
2024/02/01 05:35:15;;;;;;;42.15;24.05;;;8.00;99.90;;;;;;5013564;28;20030;-65
2024/02/01 05:37:46;;;;;;;41.25;23.58;;;8.00;99.90;;;;;;5013897;28;20084;-65
2024/02/01 05:40:16;;;;;;;40.38;23.77;;;8.00;99.90;;;;;;5014153;28;20419;-65
2024/02/01 05:42:43;;;;;;;43.08;23.70;;;8.00;99.90;;;;;;5013652;28;20069;-65
2024/02/01 05:45:10;;;;;;;39.33;23.23;;;8.00;99.90;;;;;;5013223;28;20057;-66
2024/02/01 05:47:36;;;;;;;37.65;21.60;;;8.00;99.90;;;;;;5013091;28;20579;-65
2024/02/01 05:50:02;;;;;;;39.30;22.80;;;8.00;99.90;;;;;;5013220;28;20065;-65
2024/02/01 05:52:30;;;;;;;41.05;23.17;;;8.00;99.90;;;;;;5016422;28;20026;-66
2024/02/01 05:54:55;;;;;;;40.80;23.20;;;8.00;99.90;;;;;;5016621;28;20045;-65
2024/02/01 05:57:21;;;;;;;39.45;22.88;;;8.00;99.90;;;;;;5016548;28;20061;-66
2024/02/01 05:59:46;;;;;;;43.83;22.33;;;7.90;99.90;;;;;;5016715;28;20041;-65
2024/02/01 06:02:12;;;;;;;40.60;21.88;;;7.90;99.90;;;;;;5016559;28;20045;-65
2024/02/01 06:04:37;;;;;;;35.60;21.35;;;7.90;99.90;;;;;;5016562;28;20065;-66
2024/02/01 06:07:04;;;;;;;39.15;20.35;;;7.90;99.90;;;;;;5016550;28;20034;-65
2024/02/01 06:09:30;;;;;;;36.03;21.23;;;7.80;99.90;;;;;;5016425;28;20038;-66
2024/02/01 06:11:56;;;;;;;39.03;21.48;;;7.80;99.90;;;;;;5016270;28;20034;-65
2024/02/01 06:14:21;;;;;;;37.85;20.55;;;7.70;99.90;;;;;;5016159;28;20031;-66
2024/02/01 06:16:47;;;;;;;36.45;18.92;;;7.70;99.90;;;;;;5016244;28;20040;-66
2024/02/01 06:19:13;;;;;;;34.25;19.30;;;7.70;99.90;;;;;;5016239;28;20034;-66
2024/02/01 06:21:38;;;;;;;32.17;18.90;;;7.70;99.90;;;;;;5015935;28;20029;-66
2024/02/01 06:24:05;;;;;;;28.05;16.00;;;7.70;99.90;;;;;;5016215;28;20068;-65
2024/02/01 06:26:30;;;;;;;28.45;15.35;;;7.70;99.90;;;;;;5016119;28;20022;-66
2024/02/01 06:29:07;;;;;;;24.58;12.50;;;7.60;99.90;;;;;;5015728;28;20072;-66
2024/02/01 06:31:37;;;;;;;23.80;11.32;;;7.40;99.90;;;;;;5016043;28;20026;-65
2024/02/01 06:34:04;;;;;;;22.42;9.90;;;7.30;99.90;;;;;;5015955;28;20033;-66
2024/02/01 06:36:34;;;;;;;23.42;9.70;;;7.20;99.90;;;;;;5015934;28;20156;-66
2024/02/01 06:42:04;;;;;;;22.83;7.75;;;7.00;99.90;;;;;;5015947;28;20022;-65
2024/02/01 06:44:25;;;;;;;18.75;6.97;;;7.00;99.90;;;;;;5015279;28;20038;-65
2024/02/01 06:54:50;;;;;;;32.10;7.13;;;6.70;99.90;;;;;;5070643;28;20029;-66
2024/02/01 06:57:18;;;;;;;18.40;6.18;;;6.60;99.90;;;;;;5070606;28;20078;-67
2024/02/01 07:00:06;;;;;;;21.67;6.63;;;6.50;99.90;;;;;;5070320;28;20082;-67
2024/02/01 07:03:02;;;;;;;19.67;5.78;;;6.50;99.90;;;;;;5069878;28;20486;-67
2024/02/01 07:05:26;;;;;;;24.02;6.97;;;6.50;99.90;;;;;;5069976;28;20090;-66
2024/02/01 07:08:01;;;;;;;31.70;5.97;;;6.40;99.90;;;;;;5069585;28;20048;-67
2024/02/01 07:10:42;;;;;;;25.92;5.53;;;6.30;99.90;;;;;;5069118;28;20039;-67
2024/02/01 07:13:21;;;;;;;27.58;4.80;;;6.20;99.90;;;;;;5069686;28;20030;-67
2024/02/01 07:15:48;;;;;;;25.20;4.97;;;6.10;99.90;;;;;;5069523;28;20386;-67
2024/02/01 07:18:15;;;;;;;27.80;4.90;;;6.00;99.90;;;;;;5069667;28;20047;-67
2024/02/01 07:20:58;;;;;;;18.10;4.07;;;5.90;99.90;;;;;;5069502;28;20042;-67
2024/02/01 07:23:56;;;;;;;26.08;4.88;;;5.90;99.90;;;;;;5068199;28;20028;-67
2024/02/01 07:26:24;;;;;;;29.10;5.30;;;5.80;99.90;;;;;;5069081;28;20032;-67
2024/02/01 07:57:36;;;;;;;23.20;5.15;;;5.80;99.90;;;;;;5069202;28;20123;-66
2024/02/01 07:59:12;;;;;;;25.20;4.47;;;7.80;99.90;;;;;;5069876;28;20020;-69
2024/02/01 08:02:01;;;;;;;25.92;4.35;;;7.80;99.90;;;;;;5043905;28;20032;-70
2024/02/01 08:07:43;;;;;;;23.45;4.30;;;8.10;99.90;;;;;;5029308;28;20026;-68
2024/02/01 08:09:54;;;;;;;26.08;5.25;;;9.00;61.90;;;;;;5033323;28;20024;-67
2024/02/01 08:12:20;;;;;;;23.83;5.50;;;8.70;44.10;;;;;;5034209;28;20017;-68
2024/02/01 08:14:45;;;;;;;32.15;5.75;;;9.10;4.30;;;;;;5031447;28;20033;-67
2024/02/01 08:17:11;;;;;;;32.70;7.93;;;8.70;1.00;;;;;;5035964;28;20029;-69
2024/02/01 08:19:37;;;;;;;23.00;5.00;;;8.40;24.50;;;;;;5032961;28;20021;-68
2024/02/01 08:22:05;;;;;;;27.35;4.40;;;8.80;54.20;;;;;;5032808;28;20123;-69
2024/02/01 08:24:30;;;;;;;24.33;7.20;;;8.60;14.00;;;;;;5035607;28;20033;-70
2024/02/01 08:26:56;;;;;;;30.40;7.18;;;8.70;1.00;;;;;;5034867;28;20228;-66
2024/02/01 08:29:27;;;;;;;24.45;5.43;;;9.10;1.00;;;;;;5035140;28;20032;-69
2024/02/01 08:31:53;;;;;;;27.48;4.78;;;9.40;1.00;;;;;;5033244;28;20491;-67
2024/02/01 08:34:19;;;;;;;22.42;4.32;;;9.50;1.00;;;;;;5035313;28;20096;-67
2024/02/01 08:36:44;;;;;;;26.88;4.85;;;9.60;1.00;;;;;;5033085;28;20127;-67
2024/02/01 08:39:11;;;;;;;27.27;4.75;;;9.90;1.00;;;;;;5032641;28;20033;-67
2024/02/01 08:41:37;;;;;;;32.13;4.63;;;9.70;1.00;;;;;;5039013;28;20033;-67
2024/02/01 08:44:03;;;;;;;22.42;4.68;;;10.00;1.00;;;;;;5037807;28;20029;-67
2024/02/01 08:46:30;;;;;;;24.75;4.25;;;9.90;99.90;;;;;;5035410;28;21981;-67
2024/02/01 08:48:56;;;;;;;21.25;4.97;;;10.20;99.90;;;;;;5036082;28;20029;-68
2024/02/01 08:51:21;;;;;;;23.60;4.38;;;10.10;99.90;;;;;;5033304;28;20048;-68
2024/02/01 08:53:47;;;;;;;26.65;4.70;;;10.20;1.00;;;;;;5031294;28;20025;-69
2024/02/01 08:56:12;;;;;;;21.15;4.03;;;10.20;34.80;;;;;;5037688;28;20045;-71
2024/02/01 08:58:38;;;;;;;20.48;5.72;;;10.50;1.00;;;;;;5031749;28;20029;-68
2024/02/01 09:01:05;;;;;;;29.33;5.28;;;10.50;99.90;;;;;;5027143;28;20132;-68
2024/02/01 09:03:32;;;;;;;25.40;4.60;;;10.80;1.00;;;;;;5033903;28;20120;-68
2024/02/01 09:06:08;;;;;;;27.25;4.63;;;10.70;6.30;;;;;;5037193;28;20132;-68
2024/02/01 09:08:35;;;;;;;28.48;4.85;;;10.70;1.00;;;;;;5033942;28;20064;-69
2024/02/01 09:11:09;;;;;;;25.00;5.05;;;10.90;20.30;;;;;;5022557;28;20026;-68
2024/02/01 09:13:36;;;;;;;34.53;5.30;;;10.80;89.60;;;;;;5029828;28;20034;-69
2024/02/01 09:16:02;;;;;;;31.63;8.05;;;11.10;1.00;;;;;;5033019;28;20124;-70
2024/02/01 09:18:28;;;;;;;20.58;4.68;;;10.90;1.00;;;;;;5032058;28;20022;-69
2024/02/01 09:20:54;;;;;;;22.05;5.47;;;10.80;99.90;;;;;;5032983;28;20033;-68
2024/02/01 09:23:19;;;;;;;22.38;5.40;;;11.40;99.90;;;;;;5032303;28;20121;-69
2024/02/01 09:25:45;;;;;;;17.88;5.43;;;11.60;99.90;;;;;;5037980;28;20040;-68
2024/02/01 09:28:12;;;;;;;24.33;5.28;;;11.20;99.90;;;;;;5033714;28;20083;-69
2024/02/01 09:30:45;;;;;;;22.95;5.00;;;11.00;11.50;;;;;;5034869;28;20033;-68
2024/02/01 09:33:12;;;;;;;20.80;3.88;;;11.00;99.90;;;;;;5032095;28;20033;-69
2024/02/01 09:35:37;;;;;;;23.30;5.40;;;11.30;99.90;;;;;;5039467;28;20034;-68
2024/02/01 09:38:03;;;;;;;22.67;4.85;;;11.60;1.00;;;;;;5032956;28;20369;-69
2024/02/01 09:40:30;;;;;;;27.80;4.78;;;11.90;99.90;;;;;;5034074;28;20102;-68
2024/02/01 09:42:55;;;;;;;21.38;4.38;;;11.70;99.90;;;;;;5032498;28;20049;-68
2024/02/01 09:45:29;;;;;;;17.75;4.55;;;11.80;99.90;;;;;;5029714;28;20041;-68
2024/02/01 09:47:56;;;;;;;27.38;4.50;;;11.70;99.90;;;;;;5029360;28;20045;-68
2024/02/01 09:50:23;;;;;;;23.83;4.43;;;11.50;1.00;;;;;;5029014;28;20053;-69
2024/02/01 09:52:51;;;;;;;28.02;4.40;;;11.40;1.00;;;;;;5029111;28;20037;-68
2024/02/01 09:55:18;;;;;;;23.65;4.93;;;11.40;1.00;;;;;;5028718;28;20488;-68
2024/02/01 09:57:48;;;;;;;22.48;4.65;;;11.50;1.00;;;;;;5028641;28;20381;-68
2024/02/01 10:00:18;;;;;;;27.70;4.47;;;11.50;47.10;;;;;;5031694;28;20411;-68
2024/02/01 10:02:48;;;;;;;22.50;4.88;;;11.80;1.00;;;;;;5030397;28;20098;-68
2024/02/01 10:05:14;;;;;;;27.67;4.38;;;12.00;1.00;;;;;;5030005;28;20040;-68
2024/02/01 10:07:40;;;;;;;25.15;5.00;;;11.40;1.00;;;;;;5030846;28;20037;-67
2024/02/01 10:10:06;;;;;;;21.73;4.70;;;11.20;99.90;;;;;;5034220;28;20390;-68
2024/02/01 10:12:34;;;;;;;33.65;5.10;;;11.30;99.90;;;;;;5037914;28;20017;-68
2024/02/01 10:15:00;;;;;;;23.23;4.47;;;11.40;99.90;;;;;;5034934;28;20025;-68
2024/02/01 10:17:25;;;;;;;29.02;6.43;;;11.10;99.90;;;;;;5031602;28;20033;-68
2024/02/01 10:19:52;;;;;;;28.70;7.13;;;11.40;99.90;;;;;;5031966;28;20026;-68
2024/02/01 10:22:19;;;;;;;24.67;4.53;;;11.00;1.00;;;;;;5030320;28;20101;-68
2024/02/01 10:24:48;;;;;;;32.88;8.00;;;11.20;99.90;;;;;;5029892;28;20041;-68
2024/02/01 10:27:15;;;;;;;33.88;9.73;;;11.70;1.00;;;;;;5027667;28;20067;-67
2024/02/01 10:29:42;;;;;;;29.27;5.05;;;11.60;99.90;;;;;;5033018;28;20525;-68
2024/02/01 10:32:14;;;;;;;28.48;4.93;;;11.40;99.90;;;;;;5033813;28;20094;-69
2024/02/01 10:34:50;;;;;;;23.33;4.47;;;10.90;99.90;;;;;;5033159;28;20448;-70
2024/02/01 10:37:19;;;;;;;19.88;4.85;;;10.70;99.90;;;;;;5030392;28;20438;-69
2024/02/01 10:40:07;;;;;;;26.75;4.70;;;11.00;80.30;;;;;;5031594;28;20044;-68
2024/02/01 10:42:35;;;;;;;22.52;4.03;;;11.10;99.90;;;;;;5035317;28;20034;-67
2024/02/01 10:45:06;;;;;;;25.38;4.50;;;10.90;1.00;;;;;;5031909;28;20025;-70
2024/02/01 10:47:37;;;;;;;18.73;5.00;;;11.40;1.00;;;;;;5032065;28;20040;-67
2024/02/01 10:50:03;;;;;;;21.40;4.45;;;11.50;99.90;;;;;;5031616;28;20033;-68
2024/02/01 10:52:30;;;;;;;22.25;4.88;;;11.00;99.90;;;;;;5032879;28;20036;-69
2024/02/01 10:54:56;;;;;;;28.17;4.75;;;10.50;99.90;;;;;;5030161;28;20037;-67
2024/02/01 10:57:22;;;;;;;22.67;4.72;;;11.00;1.00;;;;;;5032217;28;20029;-68
2024/02/01 10:59:50;;;;;;;31.85;5.68;;;10.90;1.00;;;;;;5032104;28;20025;-67
2024/02/01 11:02:16;;;;;;;22.45;4.50;;;9.90;1.00;;;;;;5031952;28;20026;-67
2024/02/01 11:04:47;;;;;;;21.02;4.75;;;9.90;1.00;;;;;;5032865;28;20030;-68
2024/02/01 11:07:24;;;;;;;28.65;4.68;;;10.00;99.90;;;;;;5030710;28;20033;-68
2024/02/01 11:09:51;;;;;;;27.75;4.70;;;10.10;99.90;;;;;;5033090;28;20384;-69
2024/02/01 11:12:22;;;;;;;28.17;5.40;;;9.90;99.90;;;;;;5032302;28;20510;-69
2024/02/01 11:14:48;;;;;;;25.15;4.88;;;10.50;99.90;;;;;;5031912;28;20056;-69
2024/02/01 11:17:19;;;;;;;30.00;6.05;;;10.60;99.90;;;;;;5031769;28;20086;-68
2024/02/01 11:19:48;;;;;;;22.65;4.43;;;10.30;76.00;;;;;;5030957;28;20026;-69
2024/02/01 11:22:17;;;;;;;22.98;4.15;;;10.20;1.00;;;;;;5031313;28;20391;-67
2024/02/01 11:24:43;;;;;;;30.23;5.00;;;10.10;1.00;;;;;;5030878;28;20079;-68
2024/02/01 11:27:12;;;;;;;23.88;5.18;;;9.80;1.00;;;;;;5028632;28;20041;-68
2024/02/01 11:29:40;;;;;;;31.73;7.13;;;9.70;1.00;;;;;;5029834;28;20044;-69
2024/02/01 11:32:06;;;;;;;25.95;5.75;;;9.40;99.90;;;;;;5030568;28;20086;-70
2024/02/01 11:34:33;;;;;;;25.17;4.75;;;9.30;99.90;;;;;;5030519;28;20033;-69
2024/02/01 11:37:00;;;;;;;29.13;5.13;;;9.30;99.90;;;;;;5034554;28;20047;-68
2024/02/01 11:39:27;;;;;;;23.08;4.97;;;9.10;99.90;;;;;;5033907;28;20495;-68
2024/02/01 11:41:54;;;;;;;27.33;4.25;;;9.00;68.00;;;;;;5034325;28;20371;-68
2024/02/01 11:44:23;;;;;;;24.08;4.60;;;9.20;1.00;;;;;;5039301;28;20029;-69
2024/02/01 11:46:50;;;;;;;28.52;4.65;;;9.40;1.00;;;;;;5033319;28;20033;-68
2024/02/01 11:49:20;;;;;;;26.52;5.35;;;9.70;1.00;;;;;;5037682;28;20090;-67
2024/02/01 11:51:55;;;;;;;30.00;6.28;;;10.10;99.90;;;;;;5034203;28;20053;-70
2024/02/01 11:54:21;;;;;;;27.70;5.03;;;10.30;97.00;;;;;;5033365;28;20028;-72
2024/02/01 11:56:46;;;;;;;32.05;4.95;;;10.10;1.00;;;;;;5033825;28;20037;-69
2024/02/01 11:59:12;;;;;;;28.75;5.45;;;9.60;1.00;;;;;;5033687;28;20037;-71
2024/02/01 12:01:39;;;;;;;26.15;6.15;;;9.40;99.90;;;;;;5033247;28;20395;-69
2024/02/01 12:04:07;;;;;;;22.35;4.55;;;9.10;1.00;;;;;;5037294;28;20033;-68
2024/02/01 12:06:32;;;;;;;24.85;5.10;;;8.60;1.00;;;;;;5034229;28;20030;-69
2024/02/01 12:08:59;;;;;;;30.77;4.95;;;8.50;99.90;;;;;;5033381;28;20032;-69
2024/02/01 12:11:29;;;;;;;28.63;4.03;;;8.50;13.20;;;;;;5035194;28;20033;-67
2024/02/01 12:13:59;;;;;;;26.45;4.85;;;8.60;1.00;;;;;;5034448;28;20540;-66
2024/02/01 12:16:26;;;;;;;29.58;5.43;;;8.80;99.90;;;;;;5030121;28;20115;-66
2024/02/01 12:18:54;;;;;;;28.50;5.60;;;9.40;99.90;;;;;;5034989;28;20502;-67
2024/02/01 12:21:26;;;;;;;26.70;5.05;;;9.50;99.90;;;;;;5032995;28;20109;-67
2024/02/01 12:23:56;;;;;;;29.10;4.90;;;9.80;1.00;;;;;;5035894;28;20125;-69
2024/02/01 12:26:26;;;;;;;30.98;5.07;;;9.80;99.90;;;;;;5027377;28;21647;-68
2024/02/01 12:28:54;;;;;;;21.13;5.05;;;9.40;99.90;;;;;;5031059;28;20164;-68
2024/02/01 12:31:20;;;;;;;33.75;5.15;;;9.80;99.90;;;;;;5033320;28;20041;-68
2024/02/01 12:33:45;;;;;;;27.13;5.45;;;9.90;1.00;;;;;;5033018;28;20375;-66
2024/02/01 12:36:11;;;;;;;29.73;5.80;;;10.20;1.00;;;;;;5034024;28;20446;-67
2024/02/01 12:38:52;;;;;;;31.10;7.00;;;10.50;1.00;;;;;;5036399;28;20021;-66
2024/02/01 12:41:18;;;;;;;27.73;7.20;;;10.80;99.90;;;;;;5039823;28;20365;-66
2024/02/01 12:43:44;;;;;;;36.58;5.40;;;10.80;1.00;;;;;;5033121;28;20052;-66
2024/02/01 12:46:11;;;;;;;25.52;4.45;;;10.60;99.90;;;;;;5029601;28;20484;-67
2024/02/01 12:48:38;;;;;;;31.05;4.95;;;10.60;84.30;;;;;;5030678;28;20128;-66
2024/02/01 12:51:05;;;;;;;23.27;4.25;;;10.40;99.90;;;;;;5030302;28;20590;-69
2024/02/01 12:53:31;;;;;;;23.95;4.18;;;10.60;1.00;;;;;;5032493;28;20028;-67
2024/02/01 12:55:57;;;;;;;31.63;4.78;;;10.40;99.90;;;;;;5032278;28;20034;-66
2024/02/01 12:58:22;;;;;;;25.50;5.32;;;10.20;99.90;;;;;;5034325;28;20392;-67
2024/02/01 13:00:48;;;;;;;28.73;4.55;;;10.10;99.90;;;;;;5031632;28;20041;-67
2024/02/01 13:03:14;;;;;;;25.30;4.63;;;10.30;99.90;;;;;;5029025;28;20029;-67
2024/02/01 13:05:43;;;;;;;28.35;5.32;;;10.30;99.90;;;;;;5030525;28;20041;-69
2024/02/01 13:08:14;;;;;;;28.77;5.35;;;10.10;99.90;;;;;;5031003;28;20043;-67
2024/02/01 13:10:41;;;;;;;17.48;4.13;;;10.00;1.00;;;;;;5036295;28;20041;-67
2024/02/01 13:13:07;;;;;;;21.85;4.53;;;10.10;99.90;;;;;;5033518;28;20044;-67
2024/02/01 13:15:34;;;;;;;28.92;4.20;;;9.90;1.00;;;;;;5033993;28;20087;-68
2024/02/01 13:17:59;;;;;;;23.65;4.60;;;9.80;99.90;;;;;;5032932;28;20450;-68
2024/02/01 13:20:26;;;;;;;22.42;5.20;;;9.80;99.90;;;;;;5033506;28;20120;-67
2024/02/01 13:22:53;;;;;;;23.42;3.78;;;9.30;81.70;;;;;;5032483;28;20037;-68